PWSweather.com
Personal Weather Stations
Station Observations
INORDPAS37
Bondues, BonduesFR 59910

BonduesBonduesFR 59910

Lat: 50.7, Lon: 3.09

Elevation: 102

Station Type: Netatmo

http://bondues.meteoamikuze.com

High Low Average
Temperature 69.6°F20.9°C 50.7°F10.4°C 59.7°F15.4°C
Dew Point 53.2°F11.8°C 36.9°F2.7°C 46.0°F7.8°C
Winds 2.5 mph 4.0 kmh 0.7 mph 1.1 kmh 1.0 mph ESE1.6 kmh ESE
Wind Gusts 7.4 mph11.9 kmh 1.3 mph2.1 kmh 3.0 mph4.8 kmh
Humidity 71% 56% 65%
Pressure 30.23 in1023.7 mb 30.18 in1022.0 mb -
Precipitation 0.00 in0.0 mm - -
Hour Temp Dew Point Humidity Winds Wind Gusts Pressure Precip Precip Rate Daily Precip Total
12:01 AM 56.8°F13.8°C 45.5°F7.5°C 71% 1.3 mph N2.1 kmh N 3.1 mph5.0 kmh 30.22 in1023.4 mb 0.00 in0.0 mm 0.00 in0.0 mm 0.00 in0.0 mm
12:21 AM 56.8°F13.8°C 45.5°F7.5°C 71% 0.7 mph N1.1 kmh N 2.5 mph4.0 kmh 30.22 in1023.4 mb 0.00 in0.0 mm 0.00 in0.0 mm 0.00 in0.0 mm
12:41 AM 56.8°F13.8°C 45.5°F7.5°C 71% 0.7 mph N1.1 kmh N 3.1 mph5.0 kmh 30.21 in1023.0 mb 0.00 in0.0 mm 0.00 in0.0 mm 0.00 in0.0 mm
01:01 AM 56.8°F13.8°C 45.5°F7.5°C 71% 1.3 mph NNE2.1 kmh NNE 6.9 mph11.1 kmh 30.21 in1023.0 mb 0.00 in0.0 mm 0.00 in0.0 mm 0.00 in0.0 mm
01:22 AM 56.7°F13.7°C 45.3°F7.4°C 71% 1.3 mph NNE2.1 kmh NNE 3.8 mph6.1 kmh 30.21 in1023.0 mb 0.00 in0.0 mm 0.00 in0.0 mm 0.00 in0.0 mm
01:41 AM 56.7°F13.7°C 45.3°F7.4°C 71% 1.3 mph NNE2.1 kmh NNE 4.9 mph7.9 kmh 30.21 in1023.0 mb 0.00 in0.0 mm 0.00 in0.0 mm 0.00 in0.0 mm
02:02 AM 56.7°F13.7°C 45.3°F7.4°C 71% 0.7 mph NNE1.1 kmh NNE 1.8 mph2.9 kmh 30.20 in1022.7 mb 0.00 in0.0 mm 0.00 in0.0 mm 0.00 in0.0 mm
02:21 AM 56.5°F13.6°C 45.1°F7.3°C 71% 1.3 mph NNE2.1 kmh NNE 3.1 mph5.0 kmh 30.20 in1022.7 mb 0.00 in0.0 mm 0.00 in0.0 mm 0.00 in0.0 mm
02:42 AM 56.5°F13.6°C 45.1°F7.3°C 71% 0.7 mph N1.1 kmh N 3.1 mph5.0 kmh 30.20 in1022.7 mb 0.00 in0.0 mm 0.00 in0.0 mm 0.00 in0.0 mm
03:04 AM 56.5°F13.6°C 45.1°F7.3°C 71% 0.7 mph N1.1 kmh N 1.8 mph2.9 kmh 30.19 in1022.4 mb 0.00 in0.0 mm 0.00 in0.0 mm 0.00 in0.0 mm
03:25 AM 56.5°F13.6°C 45.1°F7.3°C 71% 1.3 mph N2.1 kmh N 3.8 mph6.1 kmh 30.19 in1022.4 mb 0.00 in0.0 mm 0.00 in0.0 mm 0.00 in0.0 mm
03:44 AM 56.3°F13.5°C 45.0°F7.2°C 71% 0.7 mph NNE1.1 kmh NNE 2.5 mph4.0 kmh 30.19 in1022.4 mb 0.00 in0.0 mm 0.00 in0.0 mm 0.00 in0.0 mm
04:05 AM 56.3°F13.5°C 45.0°F7.2°C 71% 1.3 mph NNE2.1 kmh NNE 4.3 mph6.9 kmh 30.19 in1022.4 mb 0.00 in0.0 mm 0.00 in0.0 mm 0.00 in0.0 mm
04:20 AM 56.1°F13.4°C 44.8°F7.1°C 71% 1.8 mph NNE2.9 kmh NNE 4.9 mph7.9 kmh 30.19 in1022.4 mb 0.00 in0.0 mm 0.00 in0.0 mm 0.00 in0.0 mm
04:40 AM 56.1°F13.4°C 44.8°F7.1°C 71% 1.3 mph NNE2.1 kmh NNE 3.8 mph6.1 kmh 30.19 in1022.4 mb 0.00 in0.0 mm 0.00 in0.0 mm 0.00 in0.0 mm
05:00 AM 56.1°F13.4°C 44.8°F7.1°C 71% 1.3 mph N2.1 kmh N 3.8 mph6.1 kmh 30.19 in1022.4 mb 0.00 in0.0 mm 0.00 in0.0 mm 0.00 in0.0 mm
05:20 AM 56.1°F13.4°C 44.8°F7.1°C 71% 0.7 mph NNE1.1 kmh NNE 2.5 mph4.0 kmh 30.19 in1022.4 mb 0.00 in0.0 mm 0.00 in0.0 mm 0.00 in0.0 mm
05:40 AM 55.9°F13.3°C 44.6°F7.0°C 71% 1.3 mph NNE2.1 kmh NNE 3.1 mph5.0 kmh 30.20 in1022.7 mb 0.00 in0.0 mm 0.00 in0.0 mm 0.00 in0.0 mm
06:00 AM 55.9°F13.3°C 44.6°F7.0°C 71% 1.3 mph NE2.1 kmh NE 4.9 mph7.9 kmh 30.19 in1022.4 mb 0.00 in0.0 mm 0.00 in0.0 mm 0.00 in0.0 mm
06:21 AM 55.8°F13.2°C 44.4°F6.9°C 71% 0.7 mph NNE1.1 kmh NNE 2.5 mph4.0 kmh 30.19 in1022.4 mb 0.00 in0.0 mm 0.00 in0.0 mm 0.00 in0.0 mm
06:40 AM 55.8°F13.2°C 44.4°F6.9°C 71% 1.3 mph NE2.1 kmh NE 4.3 mph6.9 kmh 30.20 in1022.7 mb 0.00 in0.0 mm 0.00 in0.0 mm 0.00 in0.0 mm
07:01 AM 55.8°F13.2°C 44.4°F6.9°C 71% 0.7 mph NNE1.1 kmh NNE 2.5 mph4.0 kmh 30.20 in1022.7 mb 0.00 in0.0 mm 0.00 in0.0 mm 0.00 in0.0 mm
07:20 AM 55.8°F13.2°C 44.4°F6.9°C 71% 0.7 mph NW1.1 kmh NW 2.5 mph4.0 kmh 30.21 in1023.0 mb 0.00 in0.0 mm 0.00 in0.0 mm 0.00 in0.0 mm
07:41 AM 55.9°F13.3°C 44.6°F7.0°C 71% 0.7 mph 1.1 kmh 1.8 mph2.9 kmh 30.22 in1023.4 mb 0.00 in0.0 mm 0.00 in0.0 mm 0.00 in0.0 mm
08:01 AM 55.9°F13.3°C 44.6°F7.0°C 71% 0.7 mph E1.1 kmh E 3.1 mph5.0 kmh 30.21 in1023.0 mb 0.00 in0.0 mm 0.00 in0.0 mm 0.00 in0.0 mm
08:21 AM 56.1°F13.4°C 44.8°F7.1°C 71% 1.3 mph NE2.1 kmh NE 3.8 mph6.1 kmh 30.21 in1023.0 mb 0.00 in0.0 mm 0.00 in0.0 mm 0.00 in0.0 mm
08:42 AM 56.7°F13.7°C 45.3°F7.4°C 71% 0.7 mph NNW1.1 kmh NNW 1.8 mph2.9 kmh 30.22 in1023.4 mb 0.00 in0.0 mm 0.00 in0.0 mm 0.00 in0.0 mm
09:01 AM 57.4°F14.1°C 46.0°F7.8°C 71% 1.3 mph NE2.1 kmh NE 4.3 mph6.9 kmh 30.22 in1023.4 mb 0.00 in0.0 mm 0.00 in0.0 mm 0.00 in0.0 mm
09:22 AM 58.1°F14.5°C 46.8°F8.2°C 71% 1.8 mph NNE2.9 kmh NNE 6.9 mph11.1 kmh 30.22 in1023.4 mb 0.00 in0.0 mm 0.00 in0.0 mm 0.00 in0.0 mm
09:42 AM 58.6°F14.8°C 47.3°F8.5°C 71% 1.3 mph NE2.1 kmh NE 4.3 mph6.9 kmh 30.22 in1023.4 mb 0.00 in0.0 mm 0.00 in0.0 mm 0.00 in0.0 mm
10:02 AM 59.4°F15.2°C 48.0°F8.9°C 71% 1.3 mph NE2.1 kmh NE 4.3 mph6.9 kmh 30.23 in1023.7 mb 0.00 in0.0 mm 0.00 in0.0 mm 0.00 in0.0 mm
10:25 AM 60.8°F16.0°C 49.3°F9.6°C 71% 2.5 mph NE4.0 kmh NE 6.9 mph11.1 kmh 30.22 in1023.4 mb 0.00 in0.0 mm 0.00 in0.0 mm 0.00 in0.0 mm
10:46 AM 62.2°F16.8°C 50.4°F10.2°C 70% 1.3 mph N2.1 kmh N 3.1 mph5.0 kmh 30.22 in1023.4 mb 0.00 in0.0 mm 0.00 in0.0 mm 0.00 in0.0 mm
11:03 AM 62.8°F17.1°C 50.4°F10.2°C 69% 2.5 mph NE4.0 kmh NE 5.6 mph9.0 kmh 30.22 in1023.4 mb 0.00 in0.0 mm 0.00 in0.0 mm 0.00 in0.0 mm
11:23 AM 62.6°F17.0°C 49.8°F9.9°C 68% 1.3 mph N2.1 kmh N 3.8 mph6.1 kmh 30.22 in1023.4 mb 0.00 in0.0 mm 0.00 in0.0 mm 0.00 in0.0 mm
11:45 AM 63.1°F17.3°C 50.0°F10.0°C 67% 1.3 mph NE2.1 kmh NE 4.3 mph6.9 kmh 30.22 in1023.4 mb 0.00 in0.0 mm 0.00 in0.0 mm 0.00 in0.0 mm
12:05 PM 63.7°F17.6°C 50.5°F10.3°C 67% 1.3 mph NE2.1 kmh NE 3.1 mph5.0 kmh 30.22 in1023.4 mb 0.00 in0.0 mm 0.00 in0.0 mm 0.00 in0.0 mm
12:25 PM 64.6°F18.1°C 50.9°F10.5°C 66% 1.3 mph NE2.1 kmh NE 5.6 mph9.0 kmh 30.22 in1023.4 mb 0.00 in0.0 mm 0.00 in0.0 mm 0.00 in0.0 mm
12:46 PM 65.1°F18.4°C 51.1°F10.6°C 65% 1.3 mph NNE2.1 kmh NNE 4.3 mph6.9 kmh 30.21 in1023.0 mb 0.00 in0.0 mm 0.00 in0.0 mm 0.00 in0.0 mm
01:06 PM 66.0°F18.9°C 51.8°F11.0°C 65% 1.8 mph NE2.9 kmh NE 4.9 mph7.9 kmh 30.22 in1023.4 mb 0.00 in0.0 mm 0.00 in0.0 mm 0.00 in0.0 mm
01:26 PM 66.7°F19.3°C 52.2°F11.2°C 64% 1.3 mph 2.1 kmh 3.1 mph5.0 kmh 30.21 in1023.0 mb 0.00 in0.0 mm 0.00 in0.0 mm 0.00 in0.0 mm
01:49 PM 67.6°F19.8°C 52.2°F11.2°C 62% 1.8 mph ENE2.9 kmh ENE 6.9 mph11.1 kmh 30.21 in1023.0 mb 0.00 in0.0 mm 0.00 in0.0 mm 0.00 in0.0 mm
01:59 PM 68.2°F20.1°C 52.7°F11.5°C 62% 1.8 mph NE2.9 kmh NE 4.9 mph7.9 kmh 30.21 in1023.0 mb 0.00 in0.0 mm 0.00 in0.0 mm 0.00 in0.0 mm
02:19 PM 69.6°F20.9°C 53.2°F11.8°C 60% 1.3 mph NE2.1 kmh NE 4.9 mph7.9 kmh 30.19 in1022.4 mb 0.00 in0.0 mm 0.00 in0.0 mm 0.00 in0.0 mm
02:40 PM 69.3°F20.7°C 52.3°F11.3°C 59% 1.3 mph NW2.1 kmh NW 3.1 mph5.0 kmh 30.19 in1022.4 mb 0.00 in0.0 mm 0.00 in0.0 mm 0.00 in0.0 mm
03:05 PM 69.3°F20.7°C 52.0°F11.1°C 58% 1.8 mph NW2.9 kmh NW 5.6 mph9.0 kmh 30.19 in1022.4 mb 0.00 in0.0 mm 0.00 in0.0 mm 0.00 in0.0 mm
03:24 PM 68.5°F20.3°C 51.3°F10.7°C 58% 1.8 mph N2.9 kmh N 4.9 mph7.9 kmh 30.19 in1022.4 mb 0.00 in0.0 mm 0.00 in0.0 mm 0.00 in0.0 mm
03:45 PM 67.8°F19.9°C 50.7°F10.4°C 58% 1.3 mph NNW2.1 kmh NNW 3.1 mph5.0 kmh 30.19 in1022.4 mb 0.00 in0.0 mm 0.00 in0.0 mm 0.00 in0.0 mm
04:08 PM 67.3°F19.6°C 49.6°F9.8°C 57% 1.3 mph NNE2.1 kmh NNE 3.8 mph6.1 kmh 30.19 in1022.4 mb 0.00 in0.0 mm 0.00 in0.0 mm 0.00 in0.0 mm
04:20 PM 67.3°F19.6°C 49.6°F9.8°C 57% 1.3 mph NNW2.1 kmh NNW 4.3 mph6.9 kmh 30.18 in1022.0 mb 0.00 in0.0 mm 0.00 in0.0 mm 0.00 in0.0 mm
04:40 PM 67.1°F19.5°C 49.6°F9.8°C 57% 1.3 mph NW2.1 kmh NW 3.1 mph5.0 kmh 30.19 in1022.4 mb 0.00 in0.0 mm 0.00 in0.0 mm 0.00 in0.0 mm
05:07 PM 66.7°F19.3°C 48.7°F9.3°C 56% 1.8 mph NW2.9 kmh NW 7.4 mph11.9 kmh 30.19 in1022.4 mb 0.00 in0.0 mm 0.00 in0.0 mm 0.00 in0.0 mm
05:20 PM 66.4°F19.1°C 48.6°F9.2°C 56% 1.3 mph NW2.1 kmh NW 4.3 mph6.9 kmh 30.19 in1022.4 mb 0.00 in0.0 mm 0.00 in0.0 mm 0.00 in0.0 mm
05:43 PM 65.8°F18.8°C 48.0°F8.9°C 56% 1.3 mph NW2.1 kmh NW 4.3 mph6.9 kmh 30.19 in1022.4 mb 0.00 in0.0 mm 0.00 in0.0 mm 0.00 in0.0 mm
06:01 PM 65.7°F18.7°C 47.8°F8.8°C 56% 1.8 mph NW2.9 kmh NW 5.6 mph9.0 kmh 30.19 in1022.4 mb 0.00 in0.0 mm 0.00 in0.0 mm 0.00 in0.0 mm
06:26 PM 64.4°F18.0°C 46.6°F8.1°C 56% 1.3 mph NW2.1 kmh NW 4.3 mph6.9 kmh 30.19 in1022.4 mb 0.00 in0.0 mm 0.01 in0.3 mm 0.00 in0.0 mm
06:43 PM 63.3°F17.4°C 45.7°F7.6°C 56% 1.3 mph NNW2.1 kmh NNW 4.3 mph6.9 kmh 30.19 in1022.4 mb 0.00 in0.0 mm 0.00 in0.0 mm 0.00 in0.0 mm
07:04 PM 62.1°F16.7°C 44.8°F7.1°C 57% 0.7 mph NNW1.1 kmh NNW 1.3 mph2.1 kmh 30.19 in1022.4 mb 0.00 in0.0 mm 0.00 in0.0 mm 0.00 in0.0 mm
07:23 PM 60.8°F16.0°C 43.7°F6.5°C 57% 0.7 mph NW1.1 kmh NW 2.5 mph4.0 kmh 30.20 in1022.7 mb 0.00 in0.0 mm 0.00 in0.0 mm 0.00 in0.0 mm
07:44 PM 59.5°F15.3°C 42.8°F6.0°C 58% 0.7 mph NNW1.1 kmh NNW 1.8 mph2.9 kmh 30.20 in1022.7 mb 0.00 in0.0 mm 0.00 in0.0 mm 0.00 in0.0 mm
08:04 PM 58.5°F14.7°C 41.9°F5.5°C 58% 0.7 mph NE1.1 kmh NE 1.8 mph2.9 kmh 30.20 in1022.7 mb 0.00 in0.0 mm 0.00 in0.0 mm 0.00 in0.0 mm
08:24 PM 57.6°F14.2°C 41.0°F5.0°C 58% 0.7 mph E1.1 kmh E 1.3 mph2.1 kmh 30.21 in1023.0 mb 0.00 in0.0 mm 0.00 in0.0 mm 0.00 in0.0 mm
08:44 PM 56.7°F13.7°C 40.6°F4.8°C 59% 0.7 mph S1.1 kmh S 1.3 mph2.1 kmh 30.22 in1023.4 mb 0.00 in0.0 mm 0.00 in0.0 mm 0.00 in0.0 mm
09:05 PM 55.8°F13.2°C 40.1°F4.5°C 60% 0.7 mph SW1.1 kmh SW 1.3 mph2.1 kmh 30.22 in1023.4 mb 0.00 in0.0 mm 0.00 in0.0 mm 0.00 in0.0 mm
09:25 PM 55.2°F12.9°C 39.6°F4.2°C 60% 0.7 mph S1.1 kmh S 1.3 mph2.1 kmh 30.22 in1023.4 mb 0.00 in0.0 mm 0.00 in0.0 mm 0.00 in0.0 mm
09:45 PM 54.7°F12.6°C 39.6°F4.2°C 61% 0.7 mph SSW1.1 kmh SSW 1.3 mph2.1 kmh 30.22 in1023.4 mb 0.00 in0.0 mm 0.00 in0.0 mm 0.00 in0.0 mm
10:05 PM 54.0°F12.2°C 39.2°F4.0°C 62% 0.7 mph E1.1 kmh E 1.3 mph2.1 kmh 30.22 in1023.4 mb 0.00 in0.0 mm 0.00 in0.0 mm 0.00 in0.0 mm
10:25 PM 53.2°F11.8°C 38.5°F3.6°C 62% 0.7 mph E1.1 kmh E 1.3 mph2.1 kmh 30.22 in1023.4 mb 0.00 in0.0 mm 0.00 in0.0 mm 0.00 in0.0 mm
10:46 PM 52.7°F11.5°C 38.5°F3.6°C 63% 0.7 mph NE1.1 kmh NE 1.3 mph2.1 kmh 30.22 in1023.4 mb 0.00 in0.0 mm 0.00 in0.0 mm 0.00 in0.0 mm
11:05 PM 52.0°F11.1°C 38.1°F3.4°C 64% 0.7 mph SE1.1 kmh SE 1.3 mph2.1 kmh 30.23 in1023.7 mb 0.00 in0.0 mm 0.00 in0.0 mm 0.00 in0.0 mm
11:27 PM 51.3°F10.7°C 37.4°F3.0°C 64% 0.7 mph SE1.1 kmh SE 1.3 mph2.1 kmh 30.22 in1023.4 mb 0.00 in0.0 mm 0.00 in0.0 mm 0.00 in0.0 mm
11:40 PM 50.7°F10.4°C 36.9°F2.7°C 64% 0.7 mph NE1.1 kmh NE 1.3 mph2.1 kmh 30.22 in1023.4 mb 0.00 in0.0 mm 0.00 in0.0 mm 0.00 in0.0 mm